createdAt,value
2017-09-04T00:00:16.882Z,54
2017-09-04T00:01:24.971Z,55
2017-09-04T00:02:33.058Z,54
2017-09-04T00:03:41.251Z,54
2017-09-04T00:04:49.334Z,55
2017-09-04T00:05:57.445Z,55
2017-09-04T00:07:05.516Z,55
2017-09-04T00:08:13.608Z,54
2017-09-04T00:09:21.696Z,54
2017-09-04T00:10:29.785Z,54
2017-09-04T00:11:37.873Z,54
2017-09-04T00:12:45.959Z,54
2017-09-04T00:13:54.044Z,55
2017-09-04T00:15:02.135Z,54
2017-09-04T00:16:10.223Z,54
2017-09-04T00:17:18.311Z,55
2017-09-04T00:18:26.398Z,55
2017-09-04T00:19:34.489Z,55
2017-09-04T00:20:42.578Z,55
2017-09-04T00:21:50.662Z,55
2017-09-04T00:22:58.752Z,55
2017-09-04T00:24:06.837Z,55
2017-09-04T00:25:14.927Z,55
2017-09-04T00:26:23.015Z,55
2017-09-04T00:27:31.103Z,55
2017-09-04T00:28:39.191Z,55
2017-09-04T00:29:47.277Z,55
2017-09-04T00:30:55.368Z,55
2017-09-04T00:32:03.460Z,55
2017-09-04T00:33:11.541Z,55
2017-09-04T00:34:19.628Z,55
2017-09-04T00:35:27.716Z,55
2017-09-04T00:36:35.803Z,55
2017-09-04T00:37:43.904Z,55
2017-09-04T00:38:51.979Z,55
2017-09-04T00:40:00.069Z,55
2017-09-04T00:41:08.156Z,55
2017-09-04T00:42:16.241Z,55
2017-09-04T00:43:24.329Z,55
2017-09-04T00:44:32.417Z,55
2017-09-04T00:45:40.504Z,55
2017-09-04T00:46:48.594Z,55
2017-09-04T00:47:56.679Z,55
2017-09-04T00:49:04.776Z,55
2017-09-04T00:50:12.857Z,55
2017-09-04T00:51:20.946Z,55
2017-09-04T00:52:29.036Z,55
2017-09-04T00:53:37.119Z,54
2017-09-04T00:54:45.207Z,55
2017-09-04T00:55:53.294Z,55
2017-09-04T00:57:01.381Z,55
2017-09-04T00:58:09.469Z,55
2017-09-04T00:59:17.555Z,55
2017-09-04T01:00:25.645Z,54
2017-09-04T01:01:33.736Z,54
2017-09-04T01:02:41.820Z,55
2017-09-04T01:03:49.907Z,55
2017-09-04T01:04:58.001Z,55
2017-09-04T01:06:06.091Z,54
2017-09-04T01:07:14.181Z,54
2017-09-04T01:08:22.268Z,54
2017-09-04T01:09:30.365Z,54
2017-09-04T01:10:38.448Z,54
2017-09-04T01:11:46.534Z,54
2017-09-04T01:12:54.622Z,55
2017-09-04T01:14:02.715Z,54
2017-09-04T01:15:10.798Z,54
2017-09-04T01:16:18.891Z,54
2017-09-04T01:17:26.981Z,54
2017-09-04T01:18:35.072Z,54
2017-09-04T01:19:43.148Z,55
2017-09-04T01:20:51.234Z,55
2017-09-04T01:21:59.322Z,55
2017-09-04T01:23:07.412Z,55
2017-09-04T01:24:15.501Z,55
2017-09-04T01:25:23.589Z,54
2017-09-04T01:26:31.680Z,55
2017-09-04T01:27:39.764Z,55
2017-09-04T01:28:47.852Z,54
2017-09-04T01:29:55.938Z,55
2017-09-04T01:31:04.024Z,54
2017-09-04T01:32:12.112Z,54
2017-09-04T01:33:20.199Z,55
2017-09-04T01:34:28.285Z,54
2017-09-04T01:35:36.380Z,54
2017-09-04T01:36:44.467Z,54
2017-09-04T01:37:52.561Z,54
2017-09-04T01:39:00.643Z,54
2017-09-04T01:40:08.734Z,54
2017-09-04T01:41:16.815Z,54
2017-09-04T01:42:24.903Z,54
2017-09-04T01:43:32.991Z,54
2017-09-04T01:44:41.077Z,54
2017-09-04T01:45:49.165Z,54
2017-09-04T01:46:57.252Z,54
2017-09-04T01:48:05.338Z,54
2017-09-04T01:49:13.430Z,54
2017-09-04T01:50:21.513Z,53
2017-09-04T01:51:29.601Z,53
2017-09-04T01:52:37.688Z,54
2017-09-04T01:53:45.775Z,54
2017-09-04T01:54:53.860Z,54
2017-09-04T01:56:01.953Z,54
2017-09-04T01:57:10.039Z,54
2017-09-04T01:58:18.129Z,54
2017-09-04T01:59:26.218Z,54
2017-09-04T02:00:34.306Z,54
2017-09-04T02:01:42.390Z,54
2017-09-04T02:02:50.481Z,54
2017-09-04T02:03:58.565Z,54
2017-09-04T02:05:06.652Z,54
2017-09-04T02:06:14.736Z,54
2017-09-04T02:07:22.824Z,53
2017-09-04T02:08:30.911Z,53
2017-09-04T02:09:39.000Z,53
2017-09-04T02:10:47.085Z,53
2017-09-04T02:11:55.173Z,54
2017-09-04T02:13:03.259Z,53
2017-09-04T02:14:11.362Z,53
2017-09-04T02:15:19.433Z,53
2017-09-04T02:16:27.520Z,53
2017-09-04T02:17:35.607Z,53
2017-09-04T02:18:43.692Z,54
2017-09-04T02:19:51.781Z,53
2017-09-04T02:20:59.868Z,53
2017-09-04T02:22:07.952Z,53
2017-09-04T02:23:16.046Z,53
2017-09-04T02:24:24.128Z,53
2017-09-04T02:25:32.215Z,53
2017-09-04T02:26:40.301Z,53
2017-09-04T02:27:48.391Z,53
2017-09-04T02:28:56.474Z,53
2017-09-04T02:30:04.564Z,53
2017-09-04T02:31:12.650Z,53
2017-09-04T02:32:20.740Z,53
2017-09-04T02:33:28.831Z,53
2017-09-04T02:34:36.910Z,53
2017-09-04T02:35:44.996Z,53
2017-09-04T02:36:53.081Z,53
2017-09-04T02:38:01.170Z,53
2017-09-04T02:39:09.271Z,53
2017-09-04T02:40:17.351Z,53
2017-09-04T02:41:25.438Z,53
2017-09-04T02:42:33.524Z,53
2017-09-04T02:43:41.615Z,53
2017-09-04T02:44:49.698Z,53
2017-09-04T02:45:57.782Z,53
2017-09-04T02:47:05.870Z,53
2017-09-04T02:48:13.957Z,53
2017-09-04T02:49:22.046Z,53
2017-09-04T02:50:30.130Z,53
2017-09-04T02:51:38.218Z,53
2017-09-04T02:52:46.302Z,53
2017-09-04T02:53:54.388Z,53
2017-09-04T02:55:02.479Z,53
2017-09-04T02:56:10.564Z,53
2017-09-04T02:57:18.651Z,53
2017-09-04T02:58:26.739Z,53
2017-09-04T02:59:34.830Z,53
2017-09-04T03:00:42.911Z,53
2017-09-04T03:01:50.997Z,53
2017-09-04T03:02:59.083Z,53
2017-09-04T03:04:07.176Z,53
2017-09-04T03:05:15.257Z,53
2017-09-04T03:06:23.341Z,53
2017-09-04T03:07:31.430Z,53
2017-09-04T03:08:39.518Z,53
2017-09-04T03:09:47.606Z,53
2017-09-04T03:10:55.691Z,53
2017-09-04T03:12:03.777Z,53
2017-09-04T03:13:11.862Z,53
2017-09-04T03:14:19.947Z,53
2017-09-04T03:15:28.132Z,53
2017-09-04T03:16:36.217Z,53
2017-09-04T03:17:44.308Z,53
2017-09-04T03:18:52.397Z,53
2017-09-04T03:20:00.765Z,53
2017-09-04T03:21:08.565Z,53
2017-09-04T03:22:16.650Z,53
2017-09-04T03:23:24.737Z,53
2017-09-04T03:24:32.824Z,53
2017-09-04T03:25:40.912Z,53
2017-09-04T03:26:48.998Z,53
2017-09-04T03:27:57.086Z,53
2017-09-04T03:29:05.180Z,53
2017-09-04T03:30:13.279Z,53
2017-09-04T03:31:21.347Z,53
2017-09-04T03:32:29.430Z,53
2017-09-04T03:33:37.518Z,53
2017-09-04T03:34:45.607Z,53
2017-09-04T03:35:53.689Z,53
2017-09-04T03:37:01.779Z,53
2017-09-04T03:38:09.870Z,53
2017-09-04T03:39:17.950Z,53
2017-09-04T03:40:26.035Z,53
2017-09-04T03:41:34.127Z,53
2017-09-04T03:42:42.226Z,53
2017-09-04T03:43:50.315Z,53
2017-09-04T03:44:58.401Z,54
2017-09-04T03:46:06.486Z,53
2017-09-04T03:47:14.599Z,53
2017-09-04T03:48:22.657Z,53
2017-09-04T03:49:30.746Z,53
2017-09-04T03:50:38.833Z,53
2017-09-04T03:51:46.917Z,54
2017-09-04T03:52:55.004Z,53
2017-09-04T03:54:03.092Z,53
2017-09-04T03:55:11.179Z,53
2017-09-04T03:56:19.262Z,54
2017-09-04T03:57:27.348Z,53
2017-09-04T03:58:35.434Z,53
2017-09-04T03:59:43.521Z,54
2017-09-04T04:00:51.607Z,54
2017-09-04T04:01:59.694Z,54
2017-09-04T04:03:07.781Z,54
2017-09-04T04:04:15.868Z,54
2017-09-04T04:05:23.995Z,54
2017-09-04T04:06:32.040Z,54
2017-09-04T04:07:40.125Z,54
2017-09-04T04:08:48.214Z,54
2017-09-04T04:09:56.299Z,54
2017-09-04T04:11:04.384Z,54
2017-09-04T04:12:12.472Z,54
2017-09-04T04:13:20.696Z,54
2017-09-04T04:14:28.789Z,54
2017-09-04T04:15:36.878Z,54
2017-09-04T04:16:44.958Z,54
2017-09-04T04:17:53.046Z,54
2017-09-04T04:19:01.135Z,54
2017-09-04T04:20:09.219Z,54
2017-09-04T04:21:17.303Z,54
2017-09-04T04:22:25.391Z,54
2017-09-04T04:23:33.474Z,54
2017-09-04T04:24:41.561Z,54
2017-09-04T04:25:49.648Z,54
2017-09-04T04:26:57.734Z,54
2017-09-04T04:28:05.819Z,54
2017-09-04T04:29:13.904Z,53
2017-09-04T04:30:21.989Z,53
2017-09-04T04:31:30.077Z,53
2017-09-04T04:32:38.178Z,54
2017-09-04T04:33:46.249Z,54
2017-09-04T04:34:54.343Z,54
2017-09-04T04:36:02.420Z,54
2017-09-04T04:37:10.506Z,54
2017-09-04T04:38:18.592Z,54
2017-09-04T04:39:26.681Z,54
2017-09-04T04:40:34.765Z,54
2017-09-04T04:41:42.850Z,54
2017-09-04T04:42:50.934Z,54
2017-09-04T04:43:59.021Z,54
2017-09-04T04:45:07.166Z,54
2017-09-04T04:46:15.192Z,54
2017-09-04T04:47:23.281Z,54
2017-09-04T04:48:31.606Z,54
2017-09-04T04:49:39.527Z,54
2017-09-04T04:50:47.613Z,54
2017-09-04T04:51:55.705Z,54
2017-09-04T04:53:03.785Z,54
2017-09-04T04:54:11.909Z,54
2017-09-04T04:55:19.955Z,54
2017-09-04T04:56:28.064Z,54
2017-09-04T04:57:36.127Z,54
2017-09-04T04:58:44.212Z,54
2017-09-04T04:59:52.300Z,54
2017-09-04T05:01:00.389Z,54
2017-09-04T05:02:08.472Z,54
2017-09-04T05:03:16.557Z,54
2017-09-04T05:04:24.642Z,54
2017-09-04T05:05:32.726Z,54
2017-09-04T05:06:40.812Z,54
2017-09-04T05:07:48.898Z,54
2017-09-04T05:08:57.429Z,54
2017-09-04T05:10:05.072Z,54
2017-09-04T05:11:13.158Z,54
2017-09-04T05:12:21.243Z,54
2017-09-04T05:13:29.331Z,54
2017-09-04T05:14:37.415Z,54
2017-09-04T05:15:45.499Z,54
2017-09-04T05:16:53.586Z,54
2017-09-04T05:18:01.673Z,54
2017-09-04T05:19:09.761Z,54
2017-09-04T05:20:17.865Z,54
2017-09-04T05:21:25.932Z,54
2017-09-04T05:22:34.017Z,54
2017-09-04T05:23:42.109Z,54
2017-09-04T05:24:50.197Z,54
2017-09-04T05:25:58.283Z,54
2017-09-04T05:27:06.388Z,54
2017-09-04T05:28:14.455Z,54
2017-09-04T05:29:22.542Z,54
2017-09-04T05:30:30.628Z,54
2017-09-04T05:31:38.739Z,53
2017-09-04T05:32:46.826Z,54
2017-09-04T05:33:54.912Z,54
2017-09-04T05:35:02.997Z,54
2017-09-04T05:36:11.085Z,54
2017-09-04T05:37:19.169Z,54
2017-09-04T05:38:27.294Z,54
2017-09-04T05:39:35.342Z,55
2017-09-04T05:40:43.446Z,54
2017-09-04T05:41:51.515Z,55
2017-09-04T05:42:59.600Z,55
2017-09-04T05:44:07.687Z,55
2017-09-04T05:45:15.773Z,55
2017-09-04T05:46:23.859Z,55
2017-09-04T05:47:31.943Z,55
2017-09-04T05:48:40.030Z,55
2017-09-04T05:49:48.120Z,55
2017-09-04T05:50:56.204Z,55
2017-09-04T05:52:04.289Z,55
2017-09-04T05:53:12.375Z,55
2017-09-04T05:54:20.462Z,55
2017-09-04T05:55:28.591Z,55
2017-09-04T05:56:36.638Z,55
2017-09-04T05:57:44.721Z,55
2017-09-04T05:58:52.813Z,55
2017-09-04T06:00:00.888Z,55
2017-09-04T06:01:08.979Z,55
2017-09-04T06:02:17.067Z,55
2017-09-04T06:03:25.153Z,55
2017-09-04T06:04:33.237Z,55
2017-09-04T06:05:41.324Z,55
2017-09-04T06:06:49.406Z,55
2017-09-04T06:07:57.494Z,55
2017-09-04T06:09:05.585Z,55
2017-09-04T06:10:13.666Z,55
2017-09-04T06:11:21.751Z,55
2017-09-04T06:12:29.841Z,55
2017-09-04T06:13:37.926Z,55
2017-09-04T06:14:46.013Z,55
2017-09-04T06:15:54.099Z,56
2017-09-04T06:17:02.182Z,55
2017-09-04T06:18:10.286Z,55
2017-09-04T06:19:18.353Z,56
2017-09-04T06:20:26.458Z,55
2017-09-04T06:21:34.537Z,55
2017-09-04T06:22:42.623Z,55
2017-09-04T06:23:50.713Z,55
2017-09-04T06:24:58.796Z,55
2017-09-04T06:26:06.879Z,55
2017-09-04T06:27:14.966Z,55
2017-09-04T06:28:23.053Z,56
2017-09-04T06:29:31.144Z,55
2017-09-04T06:30:39.236Z,55
2017-09-04T06:31:47.319Z,55
2017-09-04T06:32:55.401Z,55
2017-09-04T06:34:03.494Z,55
2017-09-04T06:35:11.574Z,55
2017-09-04T06:36:19.663Z,55
2017-09-04T06:37:27.751Z,55
2017-09-04T06:38:35.839Z,55
2017-09-04T06:39:43.919Z,55
2017-09-04T06:40:52.004Z,55
2017-09-04T06:42:00.090Z,55
2017-09-04T06:43:08.175Z,55
2017-09-04T06:44:16.264Z,55
2017-09-04T06:45:24.350Z,55
2017-09-04T06:46:32.435Z,55
2017-09-04T06:47:40.524Z,55
2017-09-04T06:48:48.610Z,55
2017-09-04T06:49:56.695Z,55
2017-09-04T06:51:04.784Z,55
2017-09-04T06:52:12.869Z,55
2017-09-04T06:53:20.955Z,55
2017-09-04T06:54:29.046Z,55
2017-09-04T06:55:37.127Z,55
2017-09-04T06:56:45.224Z,55
2017-09-04T06:57:53.378Z,55
2017-09-04T06:59:01.470Z,55
2017-09-04T07:00:09.551Z,55
2017-09-04T07:01:17.638Z,56
2017-09-04T07:02:25.724Z,55
2017-09-04T07:03:33.822Z,56
2017-09-04T07:04:41.907Z,55
2017-09-04T07:05:49.995Z,55
2017-09-04T07:06:58.078Z,56
2017-09-04T07:08:06.166Z,56
2017-09-04T07:09:14.250Z,55
2017-09-04T07:10:22.338Z,55
2017-09-04T07:11:30.423Z,55
2017-09-04T07:12:38.508Z,55
2017-09-04T07:13:46.596Z,55
2017-09-04T07:14:54.684Z,55
2017-09-04T07:16:02.768Z,55
2017-09-04T07:17:10.855Z,55
2017-09-04T07:18:18.944Z,56
2017-09-04T07:19:27.024Z,55
2017-09-04T07:20:35.112Z,56
2017-09-04T07:21:43.196Z,55
2017-09-04T07:22:51.287Z,55
2017-09-04T07:23:59.369Z,55
2017-09-04T07:25:07.465Z,55
2017-09-04T07:26:15.549Z,56
2017-09-04T07:27:23.635Z,55
2017-09-04T07:28:31.724Z,55
2017-09-04T07:29:39.805Z,56
2017-09-04T07:30:47.893Z,55
2017-09-04T07:31:55.977Z,55
2017-09-04T07:33:04.065Z,56
2017-09-04T07:34:12.149Z,56
2017-09-04T07:35:20.236Z,56
2017-09-04T07:36:28.320Z,56
2017-09-04T07:37:36.407Z,56
2017-09-04T07:38:44.494Z,56
2017-09-04T07:39:52.579Z,56
2017-09-04T07:41:00.665Z,56
2017-09-04T07:42:08.750Z,56
2017-09-04T07:43:16.838Z,56
2017-09-04T07:44:24.922Z,56
2017-09-04T07:45:33.009Z,56
2017-09-04T07:46:41.105Z,56
2017-09-04T07:47:49.181Z,56
2017-09-04T07:48:57.265Z,57
2017-09-04T07:50:05.361Z,56
2017-09-04T07:51:13.469Z,56
2017-09-04T07:52:21.537Z,56
2017-09-04T07:53:29.633Z,57
2017-09-04T07:54:37.778Z,56
2017-09-04T07:55:45.821Z,57
2017-09-04T07:56:53.901Z,57
2017-09-04T07:58:01.988Z,57
2017-09-04T07:59:10.074Z,57
2017-09-04T08:00:18.158Z,57
2017-09-04T08:01:26.244Z,57
2017-09-04T08:02:34.330Z,57
2017-09-04T08:03:42.418Z,57
2017-09-04T08:04:50.513Z,57
2017-09-04T08:05:58.598Z,57
2017-09-04T08:07:06.684Z,57
2017-09-04T08:08:14.769Z,57
2017-09-04T08:09:22.855Z,57
2017-09-04T08:10:30.941Z,57
2017-09-04T08:11:39.028Z,57
2017-09-04T08:12:47.111Z,57
2017-09-04T08:13:55.201Z,57
2017-09-04T08:15:03.291Z,57
2017-09-04T08:16:11.376Z,57
2017-09-04T08:17:19.466Z,57
2017-09-04T08:18:27.550Z,57
2017-09-04T08:19:35.634Z,57
2017-09-04T08:20:43.721Z,57
2017-09-04T08:21:51.807Z,57
2017-09-04T08:22:59.893Z,57
2017-09-04T08:24:07.980Z,57
2017-09-04T08:25:16.064Z,57
2017-09-04T08:26:24.199Z,57
2017-09-04T08:27:32.284Z,57
2017-09-04T08:28:40.366Z,57
2017-09-04T08:29:48.454Z,57
2017-09-04T08:30:56.546Z,57
2017-09-04T08:32:04.627Z,57
2017-09-04T08:33:12.735Z,57
2017-09-04T08:34:20.802Z,57
2017-09-04T08:35:28.885Z,57
2017-09-04T08:36:36.969Z,57
2017-09-04T08:37:45.064Z,57
2017-09-04T08:38:53.151Z,57
2017-09-04T08:40:01.232Z,57
2017-09-04T08:41:09.323Z,57
2017-09-04T08:42:17.409Z,57
2017-09-04T08:43:25.496Z,57
2017-09-04T08:44:33.582Z,57
2017-09-04T08:45:41.668Z,57
2017-09-04T08:46:49.756Z,57
2017-09-04T08:47:57.840Z,57
2017-09-04T08:49:05.927Z,57
2017-09-04T08:50:14.013Z,57
2017-09-04T08:51:22.100Z,57
2017-09-04T08:52:30.186Z,57
2017-09-04T08:53:38.270Z,57
2017-09-04T08:54:46.357Z,58
2017-09-04T08:55:54.447Z,57
2017-09-04T08:57:02.531Z,57
2017-09-04T08:58:10.618Z,58
2017-09-04T08:59:18.764Z,58
2017-09-04T09:00:26.790Z,58
2017-09-04T09:01:34.877Z,58
2017-09-04T09:02:42.961Z,58
2017-09-04T09:03:51.219Z,57
2017-09-04T09:04:59.302Z,58
2017-09-04T09:06:07.389Z,58
2017-09-04T09:07:15.475Z,58
2017-09-04T09:08:23.562Z,57
2017-09-04T09:09:31.648Z,57
2017-09-04T09:10:39.737Z,57
2017-09-04T09:11:47.833Z,58
2017-09-04T09:12:55.911Z,57
2017-09-04T09:14:03.996Z,58
2017-09-04T09:15:12.081Z,57
2017-09-04T09:16:20.177Z,58
2017-09-04T09:17:28.265Z,57
2017-09-04T09:18:36.362Z,58
2017-09-04T09:19:44.447Z,58
2017-09-04T09:20:52.533Z,58
2017-09-04T09:22:00.619Z,58
2017-09-04T09:23:08.705Z,57
2017-09-04T09:24:16.792Z,58
2017-09-04T09:25:24.900Z,58
2017-09-04T09:26:32.967Z,58
2017-09-04T09:27:41.052Z,58
2017-09-04T09:28:49.140Z,58
2017-09-04T09:29:57.223Z,58
2017-09-04T09:31:05.332Z,58
2017-09-04T09:32:13.398Z,58
2017-09-04T09:33:21.485Z,57
2017-09-04T09:34:29.570Z,57
2017-09-04T09:35:37.660Z,58
2017-09-04T09:36:45.743Z,58
2017-09-04T09:37:53.840Z,58
2017-09-04T09:39:01.924Z,58
2017-09-04T09:40:10.012Z,58
2017-09-04T09:41:18.098Z,58
2017-09-04T09:42:26.182Z,58
2017-09-04T09:43:34.271Z,58
2017-09-04T09:44:42.357Z,58
2017-09-04T09:45:50.445Z,58
2017-09-04T09:46:58.543Z,58
2017-09-04T09:48:06.626Z,58
2017-09-04T09:49:14.713Z,58
2017-09-04T09:50:22.799Z,57
2017-09-04T09:51:30.887Z,58
2017-09-04T09:52:38.973Z,58
2017-09-04T09:53:47.059Z,57
2017-09-04T09:54:55.149Z,58
2017-09-04T09:56:03.236Z,58
2017-09-04T09:57:11.321Z,58
2017-09-04T09:58:19.408Z,58
2017-09-04T09:59:27.493Z,58
2017-09-04T10:00:35.581Z,58
2017-09-04T10:01:43.673Z,58
2017-09-04T10:02:51.761Z,58
2017-09-04T10:03:59.846Z,57
2017-09-04T10:05:07.938Z,58
2017-09-04T10:06:16.018Z,58
2017-09-04T10:07:24.104Z,58
2017-09-04T10:08:32.194Z,58
2017-09-04T10:09:40.285Z,58
2017-09-04T10:10:48.366Z,58
2017-09-04T10:11:56.454Z,58
2017-09-04T10:13:04.538Z,58
2017-09-04T10:14:12.626Z,58
2017-09-04T10:15:20.711Z,58
2017-09-04T10:16:28.799Z,57
2017-09-04T10:17:36.886Z,58
2017-09-04T10:18:44.982Z,58
2017-09-04T10:19:53.067Z,58
2017-09-04T10:21:01.155Z,58
2017-09-04T10:22:09.242Z,58
2017-09-04T10:23:17.329Z,58
2017-09-04T10:24:25.418Z,58
2017-09-04T10:25:33.503Z,58
2017-09-04T10:26:41.643Z,58
2017-09-04T10:27:49.676Z,58
2017-09-04T10:28:57.772Z,58
2017-09-04T10:30:05.858Z,58
2017-09-04T10:31:13.941Z,58
2017-09-04T10:32:22.038Z,58
2017-09-04T10:33:30.114Z,58
2017-09-04T10:34:38.204Z,58
2017-09-04T10:35:46.288Z,58
2017-09-04T10:36:54.374Z,58
2017-09-04T10:38:02.461Z,58
2017-09-04T10:39:10.548Z,58
2017-09-04T10:40:18.635Z,58
2017-09-04T10:41:26.722Z,58
2017-09-04T10:42:34.837Z,58
2017-09-04T10:43:42.896Z,58
2017-09-04T10:44:50.997Z,58
2017-09-04T10:45:59.078Z,58
2017-09-04T10:47:07.166Z,58
2017-09-04T10:48:15.253Z,58
2017-09-04T10:49:23.337Z,58
2017-09-04T10:50:31.427Z,58
2017-09-04T10:51:39.512Z,58
2017-09-04T10:52:47.597Z,58
2017-09-04T10:53:55.685Z,58
2017-09-04T10:55:03.846Z,58
2017-09-04T10:56:11.860Z,58
2017-09-04T10:57:19.957Z,58
2017-09-04T10:58:28.047Z,58
2017-09-04T10:59:36.132Z,58
2017-09-04T11:00:44.218Z,58
2017-09-04T11:01:52.306Z,58
2017-09-04T11:03:00.393Z,58
2017-09-04T11:04:08.480Z,58
2017-09-04T11:05:16.567Z,58
2017-09-04T11:06:24.659Z,58
2017-09-04T11:07:32.740Z,58
2017-09-04T11:08:40.828Z,58
2017-09-04T11:09:48.936Z,58
2017-09-04T11:10:57.022Z,58
2017-09-04T11:12:05.105Z,58
2017-09-04T11:13:13.193Z,58
2017-09-04T11:14:21.304Z,58
2017-09-04T11:15:29.390Z,58
2017-09-04T11:16:37.478Z,58
2017-09-04T11:17:45.565Z,58
2017-09-04T11:18:53.652Z,58
2017-09-04T11:20:01.740Z,58
2017-09-04T11:21:09.827Z,58
2017-09-04T11:22:17.915Z,58
2017-09-04T11:23:26.002Z,58
2017-09-04T11:24:34.094Z,58
2017-09-04T11:25:42.186Z,58
2017-09-04T11:26:50.269Z,58
2017-09-04T11:27:58.360Z,58
2017-09-04T11:29:06.443Z,58
2017-09-04T11:30:14.529Z,58
2017-09-04T11:31:22.621Z,58
2017-09-04T11:32:30.725Z,58
2017-09-04T11:33:38.820Z,58
2017-09-04T11:34:46.904Z,58
2017-09-04T11:35:54.997Z,58
2017-09-04T11:37:03.078Z,58
2017-09-04T11:38:11.165Z,58
2017-09-04T11:39:19.253Z,58
2017-09-04T11:40:27.340Z,58
2017-09-04T11:41:35.427Z,58
2017-09-04T11:42:43.515Z,58
2017-09-04T11:43:51.598Z,58
2017-09-04T11:44:59.689Z,58
2017-09-04T11:46:07.773Z,58
2017-09-04T11:47:15.894Z,58
2017-09-04T11:48:23.981Z,58
2017-09-04T11:49:32.086Z,58
2017-09-04T11:50:40.175Z,58
2017-09-04T11:51:48.266Z,58
2017-09-04T11:52:56.350Z,58
2017-09-04T11:54:04.474Z,58
2017-09-04T11:55:12.521Z,58
2017-09-04T11:56:20.607Z,58
2017-09-04T11:57:28.696Z,58
2017-09-04T11:58:36.782Z,58
2017-09-04T11:59:44.869Z,58
2017-09-04T12:00:52.960Z,58
2017-09-04T12:02:01.045Z,58
2017-09-04T12:03:09.128Z,58
2017-09-04T12:04:17.217Z,58
2017-09-04T12:05:25.300Z,58
2017-09-04T12:06:33.387Z,58
2017-09-04T12:07:41.475Z,58
2017-09-04T12:08:49.566Z,58
2017-09-04T12:09:57.651Z,58
2017-09-04T12:11:05.740Z,58
2017-09-04T12:12:13.825Z,58
2017-09-04T12:13:21.912Z,58
2017-09-04T12:14:29.998Z,58
2017-09-04T12:15:38.089Z,58
2017-09-04T12:16:46.172Z,58
2017-09-04T12:17:54.260Z,58
2017-09-04T12:19:02.348Z,58
2017-09-04T12:20:10.434Z,58
2017-09-04T12:21:18.521Z,58
2017-09-04T12:22:26.609Z,58
2017-09-04T12:23:34.692Z,58
2017-09-04T12:24:42.779Z,58
2017-09-04T12:25:50.868Z,58
2017-09-04T12:26:58.959Z,58
2017-09-04T12:28:07.040Z,58
2017-09-04T12:29:15.139Z,58
2017-09-04T12:30:23.226Z,58
2017-09-04T12:31:31.319Z,58
2017-09-04T12:32:39.400Z,58
2017-09-04T12:33:47.485Z,58
2017-09-04T12:34:55.573Z,58
2017-09-04T12:36:03.665Z,58
2017-09-04T12:37:11.754Z,58
2017-09-04T12:38:19.840Z,58
2017-09-04T12:39:27.927Z,58
2017-09-04T12:40:36.017Z,58
2017-09-04T12:41:44.100Z,58
2017-09-04T12:42:52.188Z,58
2017-09-04T12:44:00.291Z,58
2017-09-04T12:45:08.365Z,58
2017-09-04T12:46:16.450Z,58
2017-09-04T12:47:24.534Z,58
2017-09-04T12:48:32.624Z,58
2017-09-04T12:49:40.709Z,58
2017-09-04T12:50:48.795Z,58
2017-09-04T12:51:56.887Z,58
2017-09-04T12:53:04.974Z,58
2017-09-04T12:54:13.066Z,58
2017-09-04T12:55:21.154Z,58
2017-09-04T12:56:29.236Z,58
2017-09-04T12:57:37.323Z,58
2017-09-04T12:58:45.408Z,58
2017-09-04T12:59:53.505Z,58
2017-09-04T13:01:01.584Z,58
2017-09-04T13:02:09.672Z,58
2017-09-04T13:03:17.758Z,58
2017-09-04T13:04:25.846Z,58
2017-09-04T13:05:33.933Z,58
2017-09-04T13:06:42.027Z,58
2017-09-04T13:07:50.104Z,58
2017-09-04T13:08:58.191Z,58
2017-09-04T13:10:06.299Z,58
2017-09-04T13:11:14.366Z,58
2017-09-04T13:12:22.490Z,58
2017-09-04T13:13:30.540Z,58
2017-09-04T13:14:38.628Z,58
2017-09-04T13:15:46.734Z,58
2017-09-04T13:16:54.819Z,58
2017-09-04T13:18:02.911Z,58
2017-09-04T13:19:11.004Z,58
2017-09-04T13:20:19.087Z,58
2017-09-04T13:21:27.175Z,58
2017-09-04T13:22:35.264Z,58
2017-09-04T13:23:43.346Z,58
2017-09-04T13:24:51.432Z,58
2017-09-04T13:25:59.521Z,58
2017-09-04T13:27:07.607Z,58
2017-09-04T13:28:15.695Z,58
2017-09-04T13:29:23.781Z,58
2017-09-04T13:30:31.869Z,58
2017-09-04T13:31:39.954Z,58
2017-09-04T13:32:48.048Z,58
2017-09-04T13:33:56.134Z,58
2017-09-04T13:35:04.221Z,58
2017-09-04T13:36:12.310Z,58
2017-09-04T13:37:20.395Z,58
2017-09-04T13:38:28.483Z,58
2017-09-04T13:39:36.570Z,58
2017-09-04T13:40:44.656Z,58
2017-09-04T13:41:52.743Z,58
2017-09-04T13:43:00.830Z,58
2017-09-04T13:44:08.919Z,58
2017-09-04T13:45:17.004Z,58
2017-09-04T13:46:25.091Z,58
2017-09-04T13:47:33.197Z,58
2017-09-04T13:48:41.267Z,58
2017-09-04T13:49:49.351Z,58
2017-09-04T13:50:57.439Z,58
2017-09-04T13:52:05.524Z,58
2017-09-04T13:53:13.613Z,58
2017-09-04T13:54:21.734Z,58
2017-09-04T13:55:29.788Z,58
2017-09-04T13:56:37.875Z,58
2017-09-04T13:57:45.961Z,58
2017-09-04T13:58:54.053Z,58
2017-09-04T14:00:02.134Z,58
2017-09-04T14:01:10.219Z,58
2017-09-04T14:02:18.309Z,58
2017-09-04T14:03:26.396Z,58
2017-09-04T14:04:34.500Z,58
2017-09-04T14:05:42.568Z,58
2017-09-04T14:06:50.666Z,58
2017-09-04T14:07:58.792Z,58
2017-09-04T14:09:06.849Z,58
2017-09-04T14:10:14.947Z,58
2017-09-04T14:11:23.034Z,58
2017-09-04T14:12:31.120Z,58
2017-09-04T14:13:39.205Z,58
2017-09-04T14:14:47.309Z,58
2017-09-04T14:15:55.394Z,58
2017-09-04T14:17:03.481Z,58
2017-09-04T14:18:11.570Z,58
2017-09-04T14:19:19.662Z,58
2017-09-04T14:20:27.743Z,58
2017-09-04T14:21:35.829Z,58
2017-09-04T14:22:43.917Z,58
2017-09-04T14:23:52.005Z,58
2017-09-04T14:25:00.097Z,58
2017-09-04T14:26:08.179Z,58
2017-09-04T14:27:16.266Z,58
2017-09-04T14:28:24.352Z,58
2017-09-04T14:29:32.438Z,58
2017-09-04T14:30:40.524Z,58
2017-09-04T14:31:48.619Z,58
2017-09-04T14:32:56.698Z,58
2017-09-04T14:34:04.784Z,58
2017-09-04T14:35:12.870Z,58
2017-09-04T14:36:20.957Z,58
2017-09-04T14:37:29.045Z,58
2017-09-04T14:38:37.131Z,58
2017-09-04T14:39:45.216Z,58
2017-09-04T14:40:53.303Z,58
2017-09-04T14:42:01.391Z,58
2017-09-04T14:43:09.480Z,58
2017-09-04T14:44:17.565Z,58
2017-09-04T14:45:25.656Z,58
2017-09-04T14:46:33.752Z,58
2017-09-04T14:47:41.838Z,58
2017-09-04T14:48:49.925Z,58
2017-09-04T14:49:58.012Z,58
2017-09-04T14:51:06.197Z,59
2017-09-04T14:52:14.185Z,58
2017-09-04T14:53:22.273Z,58
2017-09-04T14:54:30.358Z,58
2017-09-04T14:55:38.444Z,59
2017-09-04T14:56:46.532Z,59
2017-09-04T14:57:54.618Z,59
2017-09-04T14:59:02.715Z,58
2017-09-04T15:00:10.800Z,58
2017-09-04T15:01:18.887Z,58
2017-09-04T15:02:26.973Z,58
2017-09-04T15:03:35.060Z,58
2017-09-04T15:04:43.147Z,58
2017-09-04T15:05:51.243Z,58
2017-09-04T15:06:59.321Z,58
2017-09-04T15:08:07.407Z,58
2017-09-04T15:09:15.496Z,58
2017-09-04T15:10:23.585Z,59
2017-09-04T15:11:31.672Z,58
2017-09-04T15:12:39.756Z,59
2017-09-04T15:13:47.841Z,58
2017-09-04T15:14:55.937Z,59
2017-09-04T15:16:04.021Z,58
2017-09-04T15:17:12.148Z,58
2017-09-04T15:18:20.194Z,58
2017-09-04T15:19:28.291Z,58
2017-09-04T15:20:36.384Z,58
2017-09-04T15:21:44.480Z,59
2017-09-04T15:22:52.551Z,59
2017-09-04T15:24:00.639Z,58
2017-09-04T15:25:08.726Z,58
2017-09-04T15:26:16.813Z,58
2017-09-04T15:27:24.899Z,58
2017-09-04T15:28:32.983Z,58
2017-09-04T15:29:41.112Z,58
2017-09-04T15:30:49.199Z,57
2017-09-04T15:31:57.287Z,57
2017-09-04T15:33:05.373Z,57
2017-09-04T15:34:13.458Z,57
2017-09-04T15:35:21.560Z,58
2017-09-04T15:36:29.631Z,58
2017-09-04T15:37:37.720Z,58
2017-09-04T15:38:45.810Z,58
2017-09-04T15:39:53.890Z,57
2017-09-04T15:41:01.976Z,57
2017-09-04T15:42:10.062Z,58
2017-09-04T15:43:18.150Z,58
2017-09-04T15:44:26.238Z,58
2017-09-04T15:45:34.322Z,58
2017-09-04T15:46:42.409Z,58
2017-09-04T15:47:50.503Z,58
2017-09-04T15:48:58.588Z,58
2017-09-04T15:50:06.704Z,58
2017-09-04T15:51:14.762Z,58
2017-09-04T15:52:22.848Z,58
2017-09-04T15:53:30.936Z,58
2017-09-04T15:54:39.020Z,58
2017-09-04T15:55:47.109Z,58
2017-09-04T15:56:55.196Z,58
2017-09-04T15:58:03.281Z,58
2017-09-04T15:59:11.369Z,58
2017-09-04T16:00:19.452Z,58
2017-09-04T16:01:27.542Z,59
2017-09-04T16:02:35.626Z,59
2017-09-04T16:03:43.714Z,59
2017-09-04T16:04:51.829Z,59
2017-09-04T16:05:59.885Z,59
2017-09-04T16:07:07.970Z,59
2017-09-04T16:08:16.055Z,59
2017-09-04T16:09:24.143Z,59
2017-09-04T16:10:32.230Z,60